»·PEaware :: N513KQ KLBF-KBJC

N513KQ :: KLBF-KBJC

FLIGHT INFORMATION

Flight Status: Arrived
Operator: Privately registered:
United States
More flights under this callsign
Pilot: Stefan D. (14429)
Aircraft: SOCATA TBM-900
(TBM9)
More flights by this aircraft type
Origin: KLBF North Platte Regl-Bird
United States
Destination: KBJC Jeffco
United States
More flights between these airports :: More routes between these airports
Route: +LBF V6 SNY LANDR9
File this flight plan on PilotEdge
Remarks:
Altitude:
(Current/Filed)
20,000ft
Speed:
(Current/Filed)
300kts
Departed: 07-Mar-19 10:51 AM
Arrived: 07-Mar-19 11:56 AM
Distance/Time
Traveled:
215nm/1:05
Distance/Time
To Go:
Arrived

Flight Plot

Page will automatically refresh every two minutes.

Flight plan parsing failed; only flown route is shown


Map Options




Map Legend


Flown Route
Filed Route
Departure Airport
Arrival Airport
Navaid (VOR, NDB)
Fix

Horizontal Profiles

Position Reports

Time Latitude Longitude Heading Altitude Ground
Speed
07-Mar-19 10:31 41.132299 -100.698101 90 2780ft 0kts
07-Mar-19 10:32 41.132299 -100.698101 90 2780ft 0kts
07-Mar-19 10:33 41.132299 -100.698101 90 2780ft 0kts
07-Mar-19 10:34 41.132299 -100.698101 90 2780ft 0kts
07-Mar-19 10:35 41.132299 -100.698101 90 2780ft 0kts
07-Mar-19 10:36 41.132299 -100.698101 90 2780ft 0kts
07-Mar-19 10:37 41.132299 -100.698101 90 2780ft 0kts
07-Mar-19 10:38 41.132299 -100.698101 90 2780ft 0kts
07-Mar-19 10:39 41.132299 -100.698101 90 2780ft 0kts
07-Mar-19 10:40 41.132299 -100.698101 90 2780ft 0kts
07-Mar-19 10:41 41.132299 -100.698100 90 2780ft 0kts
07-Mar-19 10:42 41.132116 -100.697803 173 2780ft 8kts
07-Mar-19 10:43 41.131478 -100.697606 130 2780ft 0kts
07-Mar-19 10:44 41.131238 -100.697127 112 2780ft 9kts
07-Mar-19 10:45 41.131100 -100.692457 89 2780ft 11kts
07-Mar-19 10:46 41.128877 -100.687735 126 2780ft 18kts
07-Mar-19 10:47 41.125539 -100.681637 126 2780ft 20kts
07-Mar-19 10:48 41.122049 -100.675263 125 2780ft 20kts
07-Mar-19 10:49 41.118536 -100.668851 125 2780ft 19kts
07-Mar-19 10:50 41.122831 -100.672939 306 2780ft 98kts
07-Mar-19 10:51 41.140523 -100.716102 278 4313ft 150kts
07-Mar-19 10:52 41.111798 -100.742817 195 6481ft 160kts
07-Mar-19 10:53 41.063624 -100.747719 184 9165ft 166kts
07-Mar-19 10:54 41.050264 -100.790572 273 11727ft 135kts
07-Mar-19 10:55 41.051651 -100.841331 273 14208ft 135kts
07-Mar-19 10:56 41.053103 -100.890998 273 16671ft 132kts
07-Mar-19 10:57 41.054591 -100.941281 273 19145ft 133kts
07-Mar-19 10:58 41.056360 -101.001300 273 20035ft 194kts
07-Mar-19 10:59 41.058660 -101.082120 273 20077ft 228kts
07-Mar-19 11:00 41.061101 -101.170208 273 20056ft 237kts
07-Mar-19 11:01 41.063534 -101.260113 273 20040ft 239kts
07-Mar-19 11:02 41.065901 -101.350197 273 20034ft 239kts
07-Mar-19 11:03 41.068203 -101.440540 273 20033ft 239kts
07-Mar-19 11:04 41.070446 -101.531281 273 20032ft 239kts
07-Mar-19 11:05 41.072607 -101.621485 273 20031ft 239kts
07-Mar-19 11:06 41.074679 -101.711150 273 20041ft 240kts
07-Mar-19 11:07 41.076702 -101.801440 272 20039ft 240kts
07-Mar-19 11:08 41.078653 -101.891765 273 20038ft 240kts
07-Mar-19 11:09 41.080533 -101.981915 273 20037ft 240kts
07-Mar-19 11:10 41.082364 -102.073640 273 20035ft 240kts
07-Mar-19 11:11 41.084142 -102.165960 273 20030ft 240kts
07-Mar-19 11:12 41.085855 -102.258402 273 20026ft 241kts
07-Mar-19 11:13 41.087483 -102.350323 273 20005ft 241kts
07-Mar-19 11:14 41.089030 -102.441712 273 19985ft 241kts
07-Mar-19 11:15 41.090500 -102.533036 273 19972ft 241kts
07-Mar-19 11:16 41.091900 -102.624635 273 19969ft 240kts
07-Mar-19 11:17 41.093207 -102.715365 272 19977ft 241kts
07-Mar-19 11:18 41.094452 -102.806228 272 19975ft 242kts
07-Mar-19 11:19 41.095630 -102.897557 272 19974ft 242kts
07-Mar-19 11:20 41.091861 -102.988992 242 19940ft 255kts
07-Mar-19 11:21 41.041313 -103.060629 234 19973ft 258kts
07-Mar-19 11:22 40.990676 -103.131476 234 19971ft 254kts
07-Mar-19 11:23 40.940623 -103.201335 233 19968ft 249kts
07-Mar-19 11:24 40.891446 -103.269788 233 19939ft 247kts
07-Mar-19 11:25 40.842235 -103.338134 233 19935ft 246kts
07-Mar-19 11:26 40.793679 -103.405434 233 19940ft 245kts
07-Mar-19 11:27 40.745985 -103.471384 233 19936ft 245kts
07-Mar-19 11:28 40.697760 -103.537916 233 19928ft 245kts
07-Mar-19 11:29 40.649333 -103.604578 233 19924ft 245kts
07-Mar-19 11:30 40.600825 -103.671197 232 19932ft 245kts
07-Mar-19 11:31 40.551845 -103.738301 232 19930ft 247kts
07-Mar-19 11:32 40.502101 -103.806329 232 19468ft 258kts
07-Mar-19 11:33 40.450434 -103.876757 232 18482ft 265kts
07-Mar-19 11:34 40.399190 -103.946463 231 17469ft 262kts
07-Mar-19 11:35 40.349012 -104.014543 232 17049ft 248kts
07-Mar-19 11:36 40.301462 -104.078978 232 17052ft 240kts
07-Mar-19 11:37 40.254730 -104.142152 232 17053ft 239kts
07-Mar-19 11:38 40.208417 -104.204613 232 17052ft 238kts
07-Mar-19 11:39 40.162356 -104.266610 232 17052ft 238kts
07-Mar-19 11:40 40.116494 -104.328247 231 16683ft 250kts
07-Mar-19 11:41 40.071948 -104.387932 231 15775ft 257kts
07-Mar-19 11:42 40.019063 -104.458659 231 14701ft 261kts
07-Mar-19 11:43 39.968516 -104.526187 231 13665ft 259kts
07-Mar-19 11:44 39.911517 -104.583347 198 12550ft 277kts
07-Mar-19 11:45 39.838782 -104.610709 217 10962ft 259kts
07-Mar-19 11:46 39.778123 -104.659517 217 9415ft 248kts
07-Mar-19 11:47 39.756766 -104.724617 288 7927ft 224kts
07-Mar-19 11:48 39.777618 -104.797272 289 6991ft 208kts
07-Mar-19 11:49 39.794579 -104.863919 282 7002ft 208kts
07-Mar-19 11:50 39.811181 -104.931047 302 6993ft 215kts
07-Mar-19 11:51 39.843105 -104.991192 301 7004ft 217kts
07-Mar-19 11:52 39.872889 -105.047842 302 6684ft 202kts
07-Mar-19 11:53 39.898147 -105.095889 302 5794ft 109kts
07-Mar-19 11:55 39.912002 -105.122180 304 5672ft 45kts
07-Mar-19 11:56 39.913609 -105.121000 103 5672ft 21kts
07-Mar-19 11:57 39.912842 -105.119715 34 5672ft 4kts
07-Mar-19 11:58 39.913696 -105.118955 34 5672ft 8kts
07-Mar-19 11:59 39.913785 -105.118878 215 5672ft 0kts
07-Mar-19 12:00 39.913785 -105.118878 215 5672ft 0kts
07-Mar-19 12:01 39.913785 -105.118878 215 5672ft 0kts

Navigation Log

Ident Type
Flight plan parsing failed, navigation log unavailable